createdAt,value
2022-09-30T00:02:17.911Z,10.94
2022-09-30T00:04:53.196Z,10.91
2022-09-30T00:07:30.946Z,10.95
2022-09-30T00:10:07.627Z,10.95
2022-09-30T00:12:49.513Z,10.92
2022-09-30T00:15:24.882Z,10.97
2022-09-30T00:17:57.898Z,10.97
2022-09-30T00:20:35.479Z,10.96
2022-09-30T00:23:19.532Z,10.92
2022-09-30T00:26:01.278Z,10.98
2022-09-30T00:28:32.378Z,11.02
2022-09-30T00:31:08.347Z,11.14
2022-09-30T00:33:36.002Z,11.18
2022-09-30T00:36:17.414Z,11.20
2022-09-30T00:38:52.688Z,11.24
2022-09-30T00:41:19.980Z,11.25
2022-09-30T00:43:53.971Z,11.33
2022-09-30T00:46:45.101Z,11.36
2022-09-30T00:49:28.624Z,11.41
2022-09-30T00:51:59.859Z,11.52
2022-09-30T00:54:37.690Z,11.57
2022-09-30T00:57:13.963Z,11.64
2022-09-30T00:59:53.587Z,11.65
2022-09-30T01:02:28.597Z,11.74
2022-09-30T01:05:04.406Z,11.79
2022-09-30T01:07:45.420Z,11.90
2022-09-30T01:10:25.497Z,11.96
2022-09-30T01:13:01.224Z,11.92
2022-09-30T01:16:13.223Z,11.89
2022-09-30T01:19:22.224Z,11.92
2022-09-30T01:22:02.226Z,11.84
2022-09-30T01:25:04.361Z,11.80
2022-09-30T01:28:01.145Z,11.83
2022-09-30T01:30:56.019Z,11.84
2022-09-30T01:33:45.729Z,11.93
2022-09-30T01:36:37.127Z,11.90
2022-09-30T01:39:40.973Z,11.85
2022-09-30T01:42:37.784Z,11.84
2022-09-30T01:45:25.144Z,11.84
2022-09-30T01:48:09.524Z,11.88
2022-09-30T01:50:42.277Z,11.90
2022-09-30T01:53:27.755Z,11.97
2022-09-30T01:56:18.049Z,11.98
2022-09-30T01:59:13.107Z,12.06
2022-09-30T02:02:09.929Z,12.11
2022-09-30T02:04:45.146Z,12.14
2022-09-30T02:07:25.280Z,12.13
2022-09-30T02:10:01.931Z,12.25
2022-09-30T02:12:39.067Z,12.15
2022-09-30T02:15:15.653Z,12.13
2022-09-30T02:17:58.401Z,12.24
2022-09-30T02:20:34.286Z,12.26
2022-09-30T02:23:10.470Z,12.32
2022-09-30T02:25:55.665Z,12.29
2022-09-30T02:28:39.620Z,12.34
2022-09-30T02:31:22.871Z,12.46
2022-09-30T02:34:24.889Z,12.44
2022-09-30T02:37:05.540Z,12.55
2022-09-30T02:39:50.554Z,12.54
2022-09-30T02:42:29.562Z,12.48
2022-09-30T02:45:10.380Z,12.59
2022-09-30T02:47:49.615Z,12.60
2022-09-30T02:50:46.164Z,12.62
2022-09-30T02:53:46.591Z,12.67
2022-09-30T02:56:41.848Z,12.58
2022-09-30T02:59:19.969Z,12.55
2022-09-30T03:02:00.825Z,12.52
2022-09-30T03:04:35.135Z,12.57
2022-09-30T03:07:12.834Z,12.52
2022-09-30T03:09:49.064Z,12.69
2022-09-30T03:12:52.629Z,12.75
2022-09-30T03:15:41.754Z,12.69
2022-09-30T03:18:46.459Z,12.68
2022-09-30T03:21:33.753Z,12.62
2022-09-30T03:24:33.360Z,12.61
2022-09-30T03:27:17.668Z,12.67
2022-09-30T03:29:55.577Z,12.58
2022-09-30T03:32:35.433Z,12.60
2022-09-30T03:35:31.648Z,12.60
2022-09-30T03:38:22.041Z,12.64
2022-09-30T03:41:13.412Z,12.62
2022-09-30T03:44:17.010Z,12.67
2022-09-30T03:47:02.523Z,12.70
2022-09-30T03:49:58.735Z,12.73
2022-09-30T03:52:37.480Z,12.75
2022-09-30T03:55:20.160Z,12.72
2022-09-30T03:57:56.108Z,12.76
2022-09-30T04:00:45.775Z,12.78
2022-09-30T04:03:24.137Z,12.73
2022-09-30T04:05:59.652Z,12.76
2022-09-30T04:08:40.759Z,12.89
2022-09-30T04:11:13.716Z,12.89
2022-09-30T04:13:49.175Z,12.93
2022-09-30T04:16:24.856Z,12.88
2022-09-30T04:18:57.349Z,12.89
2022-09-30T04:21:33.708Z,12.86
2022-09-30T04:24:15.523Z,12.89
2022-09-30T04:26:53.110Z,13.08
2022-09-30T04:29:23.339Z,12.95
2022-09-30T04:31:56.227Z,13.02
2022-09-30T04:34:40.088Z,12.97
2022-09-30T04:37:14.170Z,12.93
2022-09-30T04:39:56.910Z,12.99
2022-09-30T04:42:31.954Z,12.95
2022-09-30T04:45:02.173Z,13.03
2022-09-30T04:47:39.072Z,13.12
2022-09-30T04:50:19.355Z,13.07
2022-09-30T04:52:50.485Z,13.04
2022-09-30T04:55:24.565Z,12.94
2022-09-30T04:57:59.876Z,12.91
2022-09-30T05:00:35.321Z,13.03
2022-09-30T05:03:11.131Z,13.09
2022-09-30T05:05:47.014Z,13.04
2022-09-30T05:08:25.225Z,13.01
2022-09-30T05:11:06.318Z,12.98
2022-09-30T05:13:48.242Z,13.00
2022-09-30T05:16:24.514Z,13.03
2022-09-30T05:21:52.729Z,13.08
2022-09-30T05:24:26.049Z,13.19
2022-09-30T05:27:07.420Z,13.18
2022-09-30T05:29:37.664Z,13.13
2022-09-30T05:32:10.277Z,13.12
2022-09-30T05:34:49.220Z,13.07
2022-09-30T05:37:34.970Z,13.05
2022-09-30T05:40:08.669Z,13.10
2022-09-30T05:42:49.854Z,13.11
2022-09-30T05:45:24.936Z,13.19
2022-09-30T05:48:09.710Z,13.19
2022-09-30T05:50:39.932Z,13.22
2022-09-30T05:53:16.502Z,13.29
2022-09-30T05:55:50.622Z,13.31
2022-09-30T05:58:21.423Z,13.35
2022-09-30T06:01:13.051Z,13.34
2022-09-30T06:03:58.227Z,13.29
2022-09-30T06:06:28.179Z,13.34
2022-09-30T06:09:05.704Z,13.33
2022-09-30T06:11:43.641Z,13.31
2022-09-30T06:14:25.543Z,13.33
2022-09-30T06:17:07.386Z,13.28
2022-09-30T06:19:50.150Z,13.27
2022-09-30T06:22:21.238Z,13.28
2022-09-30T06:24:55.290Z,13.23
2022-09-30T06:27:23.204Z,13.19
2022-09-30T06:30:01.332Z,13.19
2022-09-30T06:32:32.949Z,13.18
2022-09-30T06:35:19.165Z,13.22
2022-09-30T06:38:09.148Z,13.18
2022-09-30T06:40:41.144Z,13.10
2022-09-30T06:43:17.003Z,13.18
2022-09-30T06:45:46.532Z,13.17
2022-09-30T06:48:34.328Z,13.12
2022-09-30T06:51:22.952Z,13.17
2022-09-30T06:54:02.678Z,13.10
2022-09-30T06:56:36.746Z,13.14
2022-09-30T06:59:08.551Z,13.16
2022-09-30T07:01:35.565Z,13.25
2022-09-30T07:04:08.141Z,13.24
2022-09-30T07:06:41.982Z,13.25
2022-09-30T07:09:22.784Z,13.30
2022-09-30T07:11:54.227Z,13.32
2022-09-30T07:14:29.718Z,13.17
2022-09-30T07:16:58.455Z,13.25
2022-09-30T07:19:35.264Z,13.28
2022-09-30T07:22:23.697Z,13.22
2022-09-30T07:25:04.794Z,13.25
2022-09-30T07:27:53.593Z,13.18
2022-09-30T07:30:28.771Z,13.27
2022-09-30T07:33:03.829Z,13.32
2022-09-30T07:35:36.558Z,13.33
2022-09-30T07:38:04.487Z,13.33
2022-09-30T07:40:31.485Z,13.38
2022-09-30T07:43:09.503Z,13.49
2022-09-30T07:45:37.913Z,13.54
2022-09-30T07:48:33.080Z,13.48
2022-09-30T07:51:03.674Z,13.54
2022-09-30T07:53:37.146Z,13.49
2022-09-30T07:56:09.597Z,13.56
2022-09-30T07:58:38.052Z,13.59
2022-09-30T08:01:10.651Z,13.67
2022-09-30T08:03:53.444Z,13.71
2022-09-30T08:06:27.131Z,13.63
2022-09-30T08:09:04.474Z,13.74
2022-09-30T08:11:46.180Z,13.78
2022-09-30T08:14:23.984Z,13.79
2022-09-30T08:17:00.758Z,13.85
2022-09-30T08:19:39.427Z,13.87
2022-09-30T08:22:19.461Z,13.96
2022-09-30T08:24:51.909Z,14.02
2022-09-30T08:27:24.523Z,14.03
2022-09-30T08:30:04.831Z,14.16
2022-09-30T08:32:33.695Z,14.16
2022-09-30T08:35:17.291Z,14.10
2022-09-30T08:37:55.207Z,14.18
2022-09-30T08:40:36.859Z,14.20
2022-09-30T08:43:25.219Z,14.29
2022-09-30T08:46:12.061Z,14.26
2022-09-30T08:49:03.671Z,14.27
2022-09-30T08:51:41.366Z,14.31
2022-09-30T08:54:24.614Z,14.34
2022-09-30T08:57:00.687Z,14.38
2022-09-30T09:00:12.482Z,14.42
2022-09-30T09:03:04.124Z,14.45
2022-09-30T09:06:17.564Z,14.49
2022-09-30T09:09:23.617Z,14.49
2022-09-30T09:12:27.700Z,14.57
2022-09-30T09:15:14.448Z,14.54
2022-09-30T09:18:23.489Z,14.60
2022-09-30T09:21:15.670Z,14.58
2022-09-30T09:23:52.043Z,14.62
2022-09-30T09:26:38.565Z,14.62
2022-09-30T09:29:32.474Z,14.65
2022-09-30T09:32:17.620Z,14.70
2022-09-30T09:34:53.268Z,14.84
2022-09-30T09:37:54.450Z,14.84
2022-09-30T09:41:06.361Z,14.88
2022-09-30T09:44:14.994Z,14.90
2022-09-30T09:47:02.176Z,14.87
2022-09-30T09:49:32.311Z,14.92
2022-09-30T09:52:28.190Z,14.95
2022-09-30T09:55:05.839Z,15.09
2022-09-30T09:57:44.458Z,15.18
2022-09-30T10:00:31.889Z,15.11
2022-09-30T10:03:03.131Z,15.15
2022-09-30T10:05:44.283Z,15.16
2022-09-30T10:08:14.310Z,15.21
2022-09-30T10:10:59.376Z,15.22
2022-09-30T10:13:36.443Z,15.20
2022-09-30T10:16:15.601Z,15.30
2022-09-30T10:18:46.516Z,15.37
2022-09-30T10:21:23.401Z,15.41
2022-09-30T10:23:52.850Z,15.39
2022-09-30T10:28:56.106Z,15.58
2022-09-30T10:31:28.827Z,15.78
2022-09-30T10:34:29.509Z,16.07
2022-09-30T10:37:12.989Z,16.40
2022-09-30T10:39:43.231Z,16.68
2022-09-30T10:42:26.659Z,17.05
2022-09-30T10:45:10.230Z,17.27
2022-09-30T10:47:52.587Z,17.41
2022-09-30T10:50:27.949Z,17.56
2022-09-30T10:53:31.218Z,17.69
2022-09-30T10:56:12.962Z,17.81
2022-09-30T10:58:58.034Z,17.89
2022-09-30T11:01:35.861Z,17.79
2022-09-30T11:04:14.458Z,17.68
2022-09-30T11:06:55.466Z,17.54
2022-09-30T11:10:01.692Z,17.39
2022-09-30T11:13:02.416Z,17.18
2022-09-30T11:16:02.861Z,17.09
2022-09-30T11:18:53.541Z,17.03
2022-09-30T11:21:41.934Z,17.04
2022-09-30T11:24:38.044Z,17.42
2022-09-30T11:27:26.782Z,17.66
2022-09-30T11:30:31.210Z,17.63
2022-09-30T11:33:47.452Z,17.51
2022-09-30T11:36:44.557Z,17.42
2022-09-30T11:39:40.526Z,17.32
2022-09-30T11:42:18.056Z,17.44
2022-09-30T11:45:01.416Z,17.60
2022-09-30T11:48:00.476Z,17.51
2022-09-30T11:50:50.758Z,17.49
2022-09-30T11:53:38.770Z,17.41
2022-09-30T11:56:30.242Z,17.27
2022-09-30T11:59:26.445Z,17.23
2022-09-30T12:02:02.053Z,17.15
2022-09-30T12:04:38.924Z,16.94
2022-09-30T12:07:38.645Z,16.90
2022-09-30T12:10:23.560Z,16.83
2022-09-30T12:13:23.308Z,16.68
2022-09-30T12:16:02.519Z,16.66
2022-09-30T12:18:38.579Z,16.73
2022-09-30T12:21:54.887Z,16.88
2022-09-30T12:24:47.441Z,17.18
2022-09-30T12:27:51.492Z,17.44
2022-09-30T12:30:23.060Z,17.48
2022-09-30T12:33:12.613Z,17.48
2022-09-30T12:36:14.618Z,17.42
2022-09-30T12:39:01.200Z,17.40
2022-09-30T12:41:59.108Z,17.44
2022-09-30T12:44:30.089Z,17.52
2022-09-30T12:47:18.146Z,17.45
2022-09-30T12:49:49.455Z,17.46
2022-09-30T12:52:24.004Z,17.38
2022-09-30T12:57:58.733Z,17.27
2022-09-30T13:00:38.700Z,17.25
2022-09-30T13:03:18.461Z,17.57
2022-09-30T13:06:05.054Z,17.86
2022-09-30T13:08:52.347Z,17.75
2022-09-30T13:11:47.534Z,17.67
2022-09-30T13:14:42.949Z,17.60
2022-09-30T13:17:16.650Z,17.40
2022-09-30T13:19:56.597Z,17.30
2022-09-30T13:22:29.943Z,17.25
2022-09-30T13:25:08.939Z,17.29
2022-09-30T13:28:07.748Z,17.35
2022-09-30T13:30:42.267Z,17.64
2022-09-30T13:33:42.634Z,18.00
2022-09-30T13:36:29.755Z,18.27
2022-09-30T13:39:21.587Z,18.20
2022-09-30T13:42:10.947Z,18.05
2022-09-30T13:45:20.811Z,18.14
2022-09-30T13:48:17.422Z,18.23
2022-09-30T13:50:59.531Z,18.26
2022-09-30T13:56:36.176Z,18.63
2022-09-30T13:59:36.351Z,18.82
2022-09-30T14:02:46.108Z,18.66
2022-09-30T14:05:17.323Z,18.55
2022-09-30T14:08:09.003Z,18.59
2022-09-30T14:11:04.615Z,18.97
2022-09-30T14:14:00.164Z,19.11
2022-09-30T14:19:54.545Z,18.33
2022-09-30T14:22:31.298Z,18.04
2022-09-30T14:24:58.539Z,18.30
2022-09-30T14:27:53.886Z,18.64
2022-09-30T14:30:23.557Z,18.78
2022-09-30T14:33:07.300Z,18.84
2022-09-30T14:35:47.292Z,18.80
2022-09-30T14:38:29.888Z,18.90
2022-09-30T14:41:16.690Z,18.99
2022-09-30T14:43:48.483Z,19.05
2022-09-30T14:46:43.054Z,19.12
2022-09-30T14:49:16.660Z,19.10
2022-09-30T14:51:58.113Z,18.80
2022-09-30T14:54:32.846Z,18.62
2022-09-30T14:57:03.092Z,18.34
2022-09-30T14:59:33.321Z,18.20
2022-09-30T15:02:18.621Z,17.93
2022-09-30T15:07:44.114Z,17.80
2022-09-30T15:10:23.668Z,17.88
2022-09-30T15:12:55.200Z,18.05
2022-09-30T15:15:38.292Z,18.61
2022-09-30T15:18:31.483Z,18.90
2022-09-30T15:21:14.731Z,18.74
2022-09-30T15:23:48.063Z,18.67
2022-09-30T15:26:20.975Z,18.21
2022-09-30T15:28:55.629Z,17.95
2022-09-30T15:31:27.366Z,17.61
2022-09-30T15:34:19.188Z,17.27
2022-09-30T15:37:11.955Z,17.01
2022-09-30T15:40:08.647Z,16.74
2022-09-30T15:43:06.491Z,16.51
2022-09-30T15:45:44.326Z,16.39
2022-09-30T15:48:35.396Z,16.30
2022-09-30T15:51:32.786Z,16.17
2022-09-30T15:54:18.656Z,15.96
2022-09-30T15:56:46.367Z,15.81
2022-09-30T15:59:19.326Z,15.75
2022-09-30T16:01:51.526Z,15.67
2022-09-30T16:04:28.277Z,15.53
2022-09-30T16:07:08.557Z,15.51
2022-09-30T16:09:47.704Z,15.47
2022-09-30T16:12:35.249Z,15.40
2022-09-30T16:15:16.534Z,15.41
2022-09-30T16:17:50.138Z,15.25
2022-09-30T16:20:26.743Z,15.05
2022-09-30T16:23:06.107Z,15.19
2022-09-30T16:25:44.141Z,15.01
2022-09-30T16:28:17.162Z,14.82
2022-09-30T16:30:54.365Z,14.65
2022-09-30T16:33:30.120Z,14.59
2022-09-30T16:36:07.433Z,14.64
2022-09-30T16:38:39.332Z,14.56
2022-09-30T16:41:13.151Z,14.43
2022-09-30T16:43:40.475Z,14.37
2022-09-30T16:46:10.155Z,14.37
2022-09-30T16:48:41.409Z,14.23
2022-09-30T16:51:26.110Z,14.17
2022-09-30T16:53:56.200Z,14.05
2022-09-30T16:56:36.460Z,14.03
2022-09-30T16:59:11.267Z,13.98
2022-09-30T17:01:41.717Z,13.90
2022-09-30T17:04:16.634Z,13.87
2022-09-30T17:06:47.402Z,13.73
2022-09-30T17:09:19.871Z,13.70
2022-09-30T17:11:56.391Z,13.66
2022-09-30T17:14:27.212Z,13.62
2022-09-30T17:16:57.804Z,13.53
2022-09-30T17:19:34.037Z,13.49
2022-09-30T17:22:07.286Z,13.42
2022-09-30T17:24:43.692Z,13.36
2022-09-30T17:27:11.508Z,13.24
2022-09-30T17:29:42.307Z,13.23
2022-09-30T17:32:09.589Z,13.13
2022-09-30T17:34:36.606Z,13.03
2022-09-30T17:39:48.658Z,12.91
2022-09-30T17:42:37.695Z,12.85
2022-09-30T17:45:07.871Z,12.72
2022-09-30T17:47:41.604Z,12.71
2022-09-30T17:50:19.420Z,12.60
2022-09-30T17:52:50.450Z,12.56
2022-09-30T17:55:26.446Z,12.49
2022-09-30T17:57:56.650Z,12.41
2022-09-30T18:00:27.452Z,12.33
2022-09-30T18:03:04.841Z,12.28
2022-09-30T18:05:38.774Z,12.23
2022-09-30T18:08:13.069Z,12.15
2022-09-30T18:10:46.284Z,12.09
2022-09-30T18:13:16.539Z,12.02
2022-09-30T18:15:50.621Z,11.97
2022-09-30T18:18:26.539Z,11.93
2022-09-30T18:21:02.559Z,11.85
2022-09-30T18:23:54.335Z,11.83
2022-09-30T18:26:33.348Z,11.80
2022-09-30T18:29:11.092Z,11.71
2022-09-30T18:31:49.925Z,11.65
2022-09-30T18:34:21.789Z,11.59
2022-09-30T18:37:07.230Z,11.49
2022-09-30T18:39:46.236Z,11.44
2022-09-30T18:42:23.143Z,11.39
2022-09-30T18:44:52.244Z,11.36
2022-09-30T18:47:23.942Z,11.33
2022-09-30T18:49:56.412Z,11.26
2022-09-30T18:52:28.571Z,11.23
2022-09-30T18:55:11.273Z,11.23
2022-09-30T18:57:42.913Z,11.17
2022-09-30T19:00:17.315Z,11.18
2022-09-30T19:02:54.613Z,11.13
2022-09-30T19:05:39.583Z,11.09
2022-09-30T19:08:12.189Z,11.06
2022-09-30T19:10:48.432Z,11.07
2022-09-30T19:13:31.520Z,11.07
2022-09-30T19:16:11.540Z,11.11
2022-09-30T19:18:42.473Z,11.12
2022-09-30T19:21:27.768Z,11.11
2022-09-30T19:24:01.538Z,11.14
2022-09-30T19:26:36.685Z,11.07
2022-09-30T19:29:10.553Z,11.07
2022-09-30T19:31:49.847Z,11.06
2022-09-30T19:34:31.850Z,11.10
2022-09-30T19:39:55.955Z,11.15
2022-09-30T19:42:30.920Z,11.17
2022-09-30T19:45:11.137Z,11.17
2022-09-30T19:47:38.152Z,11.17
2022-09-30T19:50:10.520Z,11.21
2022-09-30T19:52:55.204Z,11.20
2022-09-30T19:55:33.058Z,11.21
2022-09-30T19:58:02.972Z,11.27
2022-09-30T20:00:32.992Z,11.25
2022-09-30T20:03:02.476Z,11.27
2022-09-30T20:05:32.601Z,11.27
2022-09-30T20:07:59.458Z,11.29
2022-09-30T20:10:27.490Z,11.31
2022-09-30T20:13:04.408Z,11.35
2022-09-30T20:15:52.566Z,11.35
2022-09-30T20:18:28.058Z,11.53
2022-09-30T20:21:00.824Z,11.53
2022-09-30T20:23:27.851Z,11.54
2022-09-30T20:26:03.897Z,11.54
2022-09-30T20:28:36.746Z,11.59
2022-09-30T20:31:15.978Z,11.63
2022-09-30T20:33:53.974Z,11.71
2022-09-30T20:36:28.483Z,11.70
2022-09-30T20:39:05.141Z,11.67
2022-09-30T20:41:38.707Z,11.72
2022-09-30T20:44:11.990Z,11.74
2022-09-30T20:46:50.444Z,11.77
2022-09-30T20:49:21.673Z,11.80
2022-09-30T20:51:48.613Z,11.84
2022-09-30T20:54:20.999Z,11.83
2022-09-30T20:57:08.895Z,11.97
2022-09-30T20:59:40.705Z,11.96
2022-09-30T21:02:10.303Z,11.98
2022-09-30T21:04:52.450Z,12.04
2022-09-30T21:07:21.610Z,11.98
2022-09-30T21:09:51.483Z,12.01
2022-09-30T21:12:28.035Z,12.01
2022-09-30T21:14:55.340Z,11.99
2022-09-30T21:17:24.293Z,12.21
2022-09-30T21:20:00.200Z,12.10
2022-09-30T21:22:32.531Z,12.07
2022-09-30T21:24:59.376Z,12.20
2022-09-30T21:27:29.302Z,12.13
2022-09-30T21:30:02.720Z,12.08
2022-09-30T21:32:36.987Z,12.07
2022-09-30T21:35:17.882Z,12.05
2022-09-30T21:37:46.172Z,12.04
2022-09-30T21:40:29.016Z,12.05
2022-09-30T21:43:02.398Z,12.04
2022-09-30T21:45:33.751Z,12.11
2022-09-30T21:48:07.307Z,12.10
2022-09-30T21:50:37.309Z,12.07
2022-09-30T21:53:06.470Z,12.11
2022-09-30T21:55:34.084Z,12.08
2022-09-30T21:58:09.333Z,12.06
2022-09-30T22:00:39.946Z,12.05
2022-09-30T22:03:12.906Z,12.06
2022-09-30T22:05:41.085Z,12.10
2022-09-30T22:08:13.916Z,12.14
2022-09-30T22:10:49.076Z,12.22
2022-09-30T22:13:25.404Z,12.19
2022-09-30T22:18:48.364Z,12.17
2022-09-30T22:21:21.044Z,12.21
2022-09-30T22:23:48.485Z,12.16
2022-09-30T22:26:17.868Z,12.24
2022-09-30T22:28:50.377Z,12.22
2022-09-30T22:31:24.246Z,12.16
2022-09-30T22:34:11.322Z,12.13
2022-09-30T22:37:00.026Z,12.18
2022-09-30T22:39:30.062Z,12.16
2022-09-30T22:41:57.820Z,12.18
2022-09-30T22:44:26.362Z,12.18
2022-09-30T22:46:53.733Z,12.19
2022-09-30T22:49:24.748Z,12.17
2022-09-30T22:51:52.266Z,12.23
2022-09-30T22:54:21.505Z,12.35
2022-09-30T22:56:51.494Z,12.35
2022-09-30T22:59:22.596Z,12.31
2022-09-30T23:01:50.754Z,12.29
2022-09-30T23:04:23.165Z,12.37
2022-09-30T23:06:53.489Z,12.38
2022-09-30T23:09:25.867Z,12.47
2022-09-30T23:11:55.759Z,12.34
2022-09-30T23:14:29.063Z,12.25
2022-09-30T23:17:00.029Z,12.24
2022-09-30T23:19:29.697Z,12.25
2022-09-30T23:21:59.433Z,12.25
2022-09-30T23:24:31.365Z,12.28
2022-09-30T23:27:01.458Z,12.41
2022-09-30T23:29:30.762Z,12.54
2022-09-30T23:31:58.959Z,12.47
2022-09-30T23:34:27.562Z,12.37
2022-09-30T23:37:07.237Z,12.34
2022-09-30T23:39:35.927Z,12.38
2022-09-30T23:42:05.528Z,12.35
2022-09-30T23:44:37.966Z,12.42
2022-09-30T23:47:20.056Z,12.49
2022-09-30T23:49:47.126Z,12.40
2022-09-30T23:52:17.688Z,12.45
2022-09-30T23:54:46.961Z,12.37
2022-09-30T23:57:14.016Z,12.32
2022-09-30T23:59:46.746Z,12.33
